createdAt,value
2022-08-17T00:00:43.295Z,96.00
2022-08-17T00:03:10.604Z,95.90
2022-08-17T00:05:42.579Z,95.90
2022-08-17T00:08:11.691Z,96.20
2022-08-17T00:10:40.857Z,96.40
2022-08-17T00:13:15.869Z,96.30
2022-08-17T00:15:45.926Z,96.40
2022-08-17T00:19:00.382Z,96.30
2022-08-17T00:21:10.669Z,96.30
2022-08-17T00:23:47.822Z,96.30
2022-08-17T00:26:34.891Z,96.60
2022-08-17T00:29:07.593Z,96.80
2022-08-17T00:31:36.630Z,96.90
2022-08-17T00:34:08.787Z,97.00
2022-08-17T00:36:37.526Z,96.90
2022-08-17T00:39:06.191Z,96.90
2022-08-17T00:41:35.816Z,96.90
2022-08-17T00:44:06.492Z,96.90
2022-08-17T00:46:39.282Z,97.10
2022-08-17T00:49:10.573Z,97.20
2022-08-17T00:51:42.470Z,97.00
2022-08-17T00:54:14.984Z,97.20
2022-08-17T00:56:46.787Z,97.20
2022-08-17T00:59:20.261Z,97.20
2022-08-17T01:01:50.971Z,97.20
2022-08-17T01:04:23.296Z,97.20
2022-08-17T01:06:52.249Z,97.10
2022-08-17T01:09:21.649Z,97.10
2022-08-17T01:11:52.297Z,97.30
2022-08-17T01:14:21.505Z,97.50
2022-08-17T01:16:51.208Z,97.70
2022-08-17T01:19:24.513Z,97.70
2022-08-17T01:22:04.144Z,97.70
2022-08-17T01:24:35.090Z,97.80
2022-08-17T01:27:03.728Z,97.70
2022-08-17T01:29:41.066Z,97.80
2022-08-17T01:32:10.159Z,97.80
2022-08-17T01:34:43.769Z,97.80
2022-08-17T01:37:19.807Z,97.80
2022-08-17T01:39:53.489Z,97.80
2022-08-17T01:42:25.601Z,97.90
2022-08-17T01:44:57.859Z,98.00
2022-08-17T01:47:26.655Z,98.00
2022-08-17T01:49:58.084Z,98.20
2022-08-17T01:52:26.623Z,98.30
2022-08-17T01:54:56.505Z,98.30
2022-08-17T01:57:24.780Z,98.30
2022-08-17T01:59:53.036Z,98.30
2022-08-17T02:02:30.968Z,98.40
2022-08-17T02:05:00.404Z,98.40
2022-08-17T02:07:28.906Z,98.30
2022-08-17T02:09:58.629Z,98.40
2022-08-17T02:12:38.443Z,98.50
2022-08-17T02:15:10.283Z,98.80
2022-08-17T02:17:40.485Z,98.80
2022-08-17T02:20:09.990Z,98.80
2022-08-17T02:22:40.856Z,98.70
2022-08-17T02:25:13.357Z,98.60
2022-08-17T02:27:41.677Z,98.40
2022-08-17T02:30:59.915Z,98.20
2022-08-17T02:33:04.255Z,97.80
2022-08-17T02:35:34.641Z,97.70
2022-08-17T02:38:03.430Z,97.50
2022-08-17T02:40:36.275Z,97.80
2022-08-17T02:43:05.276Z,97.50
2022-08-17T02:45:34.064Z,97.40
2022-08-17T02:48:02.720Z,97.60
2022-08-17T02:50:31.008Z,97.50
2022-08-17T02:53:02.202Z,97.10
2022-08-17T02:55:35.513Z,96.80
2022-08-17T02:58:04.578Z,96.40
2022-08-17T03:00:35.337Z,96.00
2022-08-17T03:03:06.252Z,95.70
2022-08-17T03:05:37.356Z,95.50
2022-08-17T03:08:07.328Z,95.40
2022-08-17T03:10:41.736Z,95.30
2022-08-17T03:13:10.240Z,95.30
2022-08-17T03:15:43.778Z,95.30
2022-08-17T03:18:19.367Z,95.40
2022-08-17T03:20:53.877Z,95.00
2022-08-17T03:23:24.092Z,95.00
2022-08-17T03:25:54.887Z,95.10
2022-08-17T03:28:24.700Z,95.20
2022-08-17T03:30:53.287Z,95.20
2022-08-17T03:33:21.750Z,95.30
2022-08-17T03:35:50.231Z,95.20
2022-08-17T03:38:18.779Z,95.30
2022-08-17T03:40:56.464Z,95.10
2022-08-17T03:43:31.326Z,95.20
2022-08-17T03:46:28.272Z,95.20
2022-08-17T03:49:19.916Z,95.40
2022-08-17T03:52:05.506Z,95.60
2022-08-17T03:54:51.049Z,95.90
2022-08-17T03:57:20.309Z,96.00
2022-08-17T03:59:50.173Z,96.00
2022-08-17T04:02:20.605Z,96.20
2022-08-17T04:04:51.303Z,96.20
2022-08-17T04:07:20.358Z,96.80
2022-08-17T04:09:48.672Z,97.20
2022-08-17T04:12:17.832Z,97.40
2022-08-17T04:14:53.223Z,97.60
2022-08-17T04:17:29.100Z,98.00
2022-08-17T04:19:57.463Z,98.10
2022-08-17T04:22:31.819Z,98.30
2022-08-17T04:25:03.675Z,98.40
2022-08-17T04:27:31.984Z,98.40
2022-08-17T04:30:00.284Z,98.40
2022-08-17T04:33:04.851Z,98.30
2022-08-17T04:35:20.956Z,98.30
2022-08-17T04:37:49.531Z,98.20
2022-08-17T04:40:37.263Z,98.20
2022-08-17T04:43:07.420Z,98.20
2022-08-17T04:45:39.248Z,98.20
2022-08-17T04:48:09.134Z,98.00
2022-08-17T04:50:40.232Z,97.90
2022-08-17T04:53:08.877Z,97.80
2022-08-17T04:55:37.715Z,97.70
2022-08-17T04:58:06.339Z,97.90
2022-08-17T05:00:35.263Z,98.10
2022-08-17T05:03:03.760Z,98.60
2022-08-17T05:05:36.273Z,98.50
2022-08-17T05:08:06.888Z,98.70
2022-08-17T05:10:37.890Z,98.80
2022-08-17T05:13:16.487Z,98.80
2022-08-17T05:15:47.642Z,98.90
2022-08-17T05:18:17.603Z,99.10
2022-08-17T05:20:47.293Z,99.20
2022-08-17T05:23:20.315Z,99.30
2022-08-17T05:25:51.724Z,99.40
2022-08-17T05:28:24.224Z,99.40
2022-08-17T05:30:57.429Z,99.70
2022-08-17T05:33:28.108Z,99.90
2022-08-17T05:36:00.108Z,99.90
2022-08-17T05:38:30.243Z,99.90
2022-08-17T05:40:59.788Z,99.90
2022-08-17T05:43:30.488Z,99.90
2022-08-17T05:46:04.025Z,99.90
2022-08-17T05:48:39.167Z,99.90
2022-08-17T05:51:44.331Z,99.90
2022-08-17T05:54:28.369Z,99.90
2022-08-17T05:57:10.068Z,99.90
2022-08-17T05:59:48.172Z,99.90
2022-08-17T06:02:22.972Z,99.90
2022-08-17T06:05:06.623Z,99.90
2022-08-17T06:07:46.906Z,99.90
2022-08-17T06:10:23.945Z,99.90
2022-08-17T06:13:02.947Z,99.90
2022-08-17T06:15:36.256Z,99.90
2022-08-17T06:18:09.411Z,99.90
2022-08-17T06:20:47.038Z,99.90
2022-08-17T06:23:25.719Z,99.90
2022-08-17T06:25:58.473Z,99.90
2022-08-17T06:28:32.819Z,99.90
2022-08-17T06:31:07.736Z,99.90
2022-08-17T06:33:38.534Z,99.90
2022-08-17T06:36:18.335Z,99.90
2022-08-17T06:38:58.502Z,99.90
2022-08-17T06:41:35.720Z,99.90
2022-08-17T06:44:42.229Z,99.90
2022-08-17T06:47:09.092Z,99.90
2022-08-17T06:49:44.316Z,99.90
2022-08-17T06:52:45.415Z,99.90
2022-08-17T06:55:21.318Z,99.90
2022-08-17T06:57:53.077Z,99.90
2022-08-17T07:00:24.471Z,99.90
2022-08-17T07:02:58.096Z,99.90
2022-08-17T07:05:31.825Z,99.90
2022-08-17T07:08:05.930Z,99.90
2022-08-17T07:10:42.644Z,99.90
2022-08-17T07:13:42.003Z,99.90
2022-08-17T07:16:18.085Z,99.90
2022-08-17T07:18:47.037Z,99.90
2022-08-17T07:21:26.884Z,99.90
2022-08-17T07:24:04.430Z,99.90
2022-08-17T07:26:34.093Z,99.90
2022-08-17T07:29:02.937Z,99.90
2022-08-17T07:31:33.710Z,99.90
2022-08-17T07:34:07.969Z,99.90
2022-08-17T07:36:36.367Z,99.90
2022-08-17T07:39:05.921Z,99.90
2022-08-17T07:41:53.318Z,99.90
2022-08-17T07:44:27.357Z,99.90
2022-08-17T07:47:13.951Z,99.90
2022-08-17T07:49:46.454Z,99.90
2022-08-17T07:52:48.227Z,99.90
2022-08-17T07:55:29.357Z,99.90
2022-08-17T07:58:00.567Z,99.90
2022-08-17T08:00:32.058Z,99.90
2022-08-17T08:03:14.764Z,99.90
2022-08-17T08:05:52.199Z,99.90
2022-08-17T08:08:29.127Z,99.90
2022-08-17T08:11:02.609Z,99.90
2022-08-17T08:13:33.324Z,99.90
2022-08-17T08:16:24.244Z,99.90
2022-08-17T08:18:57.070Z,99.90
2022-08-17T08:21:47.196Z,99.90
2022-08-17T08:24:42.201Z,99.90
2022-08-17T08:27:23.306Z,99.90
2022-08-17T08:29:58.352Z,99.90
2022-08-17T08:32:40.595Z,99.90
2022-08-17T08:35:13.064Z,99.90
2022-08-17T08:37:49.361Z,99.90
2022-08-17T08:40:35.739Z,99.90
2022-08-17T08:43:16.261Z,99.90
2022-08-17T08:45:56.623Z,99.90
2022-08-17T08:48:56.589Z,99.90
2022-08-17T08:51:38.793Z,99.90
2022-08-17T08:54:14.926Z,99.90
2022-08-17T08:57:19.238Z,99.90
2022-08-17T08:59:54.166Z,99.90
2022-08-17T09:02:54.432Z,99.90
2022-08-17T09:05:34.683Z,99.90
2022-08-17T09:08:12.465Z,99.90
2022-08-17T09:10:51.999Z,99.90
2022-08-17T09:13:27.480Z,99.90
2022-08-17T09:16:01.740Z,99.90
2022-08-17T09:19:00.337Z,99.90
2022-08-17T09:21:33.815Z,99.90
2022-08-17T09:24:07.271Z,99.90
2022-08-17T09:26:41.041Z,99.90
2022-08-17T09:29:15.049Z,99.90
2022-08-17T09:31:50.503Z,99.90
2022-08-17T09:34:32.161Z,99.90
2022-08-17T09:37:16.857Z,99.90
2022-08-17T09:39:51.524Z,99.90
2022-08-17T09:42:27.508Z,99.90
2022-08-17T09:45:03.854Z,99.90
2022-08-17T09:47:39.581Z,99.90
2022-08-17T09:50:14.148Z,99.90
2022-08-17T09:52:43.146Z,99.90
2022-08-17T09:55:11.552Z,99.90
2022-08-17T09:57:54.284Z,99.90
2022-08-17T10:00:27.603Z,99.90
2022-08-17T10:03:11.814Z,99.90
2022-08-17T10:05:47.566Z,99.90
2022-08-17T10:08:27.623Z,99.90
2022-08-17T10:11:08.018Z,99.90
2022-08-17T10:13:53.128Z,99.90
2022-08-17T10:16:31.961Z,99.90
2022-08-17T10:19:16.171Z,99.90
2022-08-17T10:22:32.674Z,99.90
2022-08-17T10:25:23.263Z,99.90
2022-08-17T10:27:56.383Z,99.90
2022-08-17T10:30:27.545Z,99.90
2022-08-17T10:32:59.174Z,99.90
2022-08-17T10:35:39.281Z,99.90
2022-08-17T10:38:41.643Z,99.90
2022-08-17T10:41:33.908Z,99.90
2022-08-17T10:44:40.321Z,99.90
2022-08-17T10:47:08.709Z,99.90
2022-08-17T10:49:39.281Z,99.90
2022-08-17T10:52:49.972Z,99.90
2022-08-17T10:55:21.224Z,99.90
2022-08-17T10:57:51.197Z,99.90
2022-08-17T11:00:59.023Z,99.90
2022-08-17T11:03:27.996Z,99.70
2022-08-17T11:06:05.842Z,99.50
2022-08-17T11:09:03.815Z,99.20
2022-08-17T11:11:47.386Z,99.00
2022-08-17T11:14:37.468Z,97.70
2022-08-17T11:17:21.226Z,95.90
2022-08-17T11:20:14.073Z,94.80
2022-08-17T11:23:10.242Z,94.50
2022-08-17T11:25:41.224Z,93.70
2022-08-17T11:28:19.243Z,93.80
2022-08-17T11:30:51.923Z,92.90
2022-08-17T11:33:52.716Z,92.90
2022-08-17T11:36:40.957Z,92.80
2022-08-17T11:39:29.421Z,91.90
2022-08-17T11:42:04.804Z,90.70
2022-08-17T11:44:44.157Z,91.20
2022-08-17T11:47:36.443Z,91.90
2022-08-17T11:50:55.077Z,92.00
2022-08-17T11:54:31.066Z,92.10
2022-08-17T11:56:52.860Z,92.30
2022-08-17T12:00:00.887Z,90.20
2022-08-17T12:02:48.829Z,90.30
2022-08-17T12:05:38.013Z,91.20
2022-08-17T12:08:20.093Z,92.00
2022-08-17T12:10:59.282Z,92.90
2022-08-17T12:13:38.522Z,92.10
2022-08-17T12:16:14.636Z,93.80
2022-08-17T12:18:51.257Z,93.80
2022-08-17T12:21:33.017Z,93.20
2022-08-17T12:24:07.527Z,94.40
2022-08-17T12:26:37.761Z,94.50
2022-08-17T12:29:09.364Z,94.60
2022-08-17T12:31:50.995Z,95.10
2022-08-17T12:34:23.772Z,96.10
2022-08-17T12:36:59.057Z,95.80
2022-08-17T12:39:28.891Z,96.10
2022-08-17T12:42:03.075Z,94.70
2022-08-17T12:44:33.493Z,95.70
2022-08-17T12:47:07.603Z,93.90
2022-08-17T12:49:38.109Z,95.10
2022-08-17T12:52:14.448Z,94.70
2022-08-17T12:54:59.613Z,94.70
2022-08-17T12:57:32.782Z,93.80
2022-08-17T13:00:03.663Z,94.00
2022-08-17T13:02:41.808Z,93.00
2022-08-17T13:05:21.361Z,94.10
2022-08-17T13:07:50.421Z,92.10
2022-08-17T13:10:22.981Z,92.00
2022-08-17T13:12:52.397Z,92.10
2022-08-17T13:15:29.476Z,90.40
2022-08-17T13:18:07.376Z,91.30
2022-08-17T13:20:36.377Z,92.20
2022-08-17T13:23:12.012Z,91.40
2022-08-17T13:25:40.679Z,90.80
2022-08-17T13:28:30.738Z,88.60
2022-08-17T13:31:32.706Z,88.20
2022-08-17T13:34:16.417Z,88.20
2022-08-17T13:36:48.884Z,90.80
2022-08-17T13:39:21.085Z,88.10
2022-08-17T13:41:51.054Z,88.70
2022-08-17T13:44:33.076Z,88.30
2022-08-17T13:47:02.360Z,90.20
2022-08-17T13:49:33.898Z,90.10
2022-08-17T13:52:33.927Z,90.40
2022-08-17T13:55:07.423Z,88.70
2022-08-17T13:57:36.833Z,88.50
2022-08-17T14:00:12.762Z,89.90
2022-08-17T14:02:41.065Z,90.60
2022-08-17T14:05:10.975Z,90.90
2022-08-17T14:07:40.716Z,88.90
2022-08-17T14:10:13.855Z,90.50
2022-08-17T14:12:44.082Z,90.50
2022-08-17T14:15:14.023Z,90.10
2022-08-17T14:17:42.310Z,86.20
2022-08-17T14:20:14.283Z,89.60
2022-08-17T14:22:46.287Z,90.10
2022-08-17T14:25:17.549Z,87.30
2022-08-17T14:27:53.362Z,90.50
2022-08-17T14:30:25.002Z,91.00
2022-08-17T14:32:54.304Z,90.00
2022-08-17T14:35:24.858Z,88.50
2022-08-17T14:37:53.903Z,89.10
2022-08-17T14:40:24.925Z,89.80
2022-08-17T14:42:55.768Z,89.20
2022-08-17T14:45:31.773Z,87.70
2022-08-17T14:48:02.740Z,87.80
2022-08-17T14:50:35.836Z,87.00
2022-08-17T14:53:05.578Z,87.30
2022-08-17T14:55:33.834Z,87.10
2022-08-17T14:58:03.822Z,87.80
2022-08-17T15:11:06.124Z,84.40
2022-08-17T15:13:52.206Z,90.30
2022-08-17T15:16:22.619Z,91.10
2022-08-17T15:18:52.611Z,91.70
2022-08-17T15:21:20.888Z,91.80
2022-08-17T15:23:49.170Z,91.60
2022-08-17T15:26:22.869Z,92.10
2022-08-17T15:28:57.292Z,92.20
2022-08-17T15:31:31.816Z,92.50
2022-08-17T15:34:01.091Z,92.80
2022-08-17T15:36:29.385Z,93.20
2022-08-17T15:38:58.931Z,93.60
2022-08-17T15:41:29.387Z,93.40
2022-08-17T15:43:57.677Z,92.30
2022-08-17T15:46:27.309Z,91.40
2022-08-17T15:48:59.691Z,91.80
2022-08-17T15:51:30.616Z,90.80
2022-08-17T15:54:04.532Z,90.00
2022-08-17T15:56:47.268Z,88.10
2022-08-17T15:59:15.624Z,88.50
2022-08-17T16:03:15.059Z,87.00
2022-08-17T16:04:32.286Z,88.50
2022-08-17T16:07:00.818Z,88.10
2022-08-17T16:09:29.491Z,90.00
2022-08-17T16:11:59.228Z,89.50
2022-08-17T16:14:32.453Z,89.50
2022-08-17T16:17:04.562Z,84.80
2022-08-17T16:19:33.368Z,85.10
2022-08-17T16:22:01.898Z,84.20
2022-08-17T16:24:30.704Z,84.20
2022-08-17T16:27:00.407Z,82.60
2022-08-17T16:29:29.193Z,82.50
2022-08-17T16:31:58.164Z,83.40
2022-08-17T16:34:26.424Z,84.10
2022-08-17T16:36:56.473Z,85.20
2022-08-17T16:39:27.182Z,83.60
2022-08-17T16:41:55.997Z,82.90
2022-08-17T16:44:28.964Z,81.90
2022-08-17T16:46:58.036Z,82.60
2022-08-17T16:49:37.344Z,84.20
2022-08-17T16:52:10.041Z,84.20
2022-08-17T16:54:41.365Z,84.30
2022-08-17T16:57:09.799Z,83.70
2022-08-17T16:59:43.612Z,85.30
2022-08-17T17:02:16.251Z,85.70
2022-08-17T17:04:52.750Z,86.30
2022-08-17T17:07:44.866Z,85.70
2022-08-17T17:10:16.971Z,86.80
2022-08-17T17:13:02.898Z,86.40
2022-08-17T17:15:46.743Z,87.90
2022-08-17T17:18:16.741Z,87.90
2022-08-17T17:20:49.860Z,88.60
2022-08-17T17:23:35.968Z,90.30
2022-08-17T17:26:17.560Z,90.10
2022-08-17T17:28:56.778Z,90.00
2022-08-17T17:31:31.790Z,90.20
2022-08-17T17:34:04.847Z,90.80
2022-08-17T17:36:39.123Z,91.50
2022-08-17T17:39:13.068Z,92.30
2022-08-17T17:41:48.177Z,92.40
2022-08-17T17:44:20.500Z,92.70
2022-08-17T17:46:55.481Z,92.90
2022-08-17T17:49:24.812Z,93.20
2022-08-17T17:52:09.146Z,93.40
2022-08-17T17:55:03.657Z,93.70
2022-08-17T17:57:48.792Z,94.30
2022-08-17T18:00:21.842Z,94.70
2022-08-17T18:03:09.391Z,94.70
2022-08-17T18:06:12.611Z,94.90
2022-08-17T18:09:04.702Z,95.10
2022-08-17T18:11:51.443Z,95.20
2022-08-17T18:14:37.820Z,95.40
2022-08-17T18:17:07.668Z,95.50
2022-08-17T18:19:39.773Z,95.60
2022-08-17T18:22:14.871Z,95.70
2022-08-17T18:24:46.434Z,96.00
2022-08-17T18:27:24.414Z,97.00
2022-08-17T18:29:53.989Z,97.30
2022-08-17T18:32:29.608Z,97.90
2022-08-17T18:35:02.256Z,97.80
2022-08-17T18:37:40.816Z,97.90
2022-08-17T18:40:30.580Z,98.20
2022-08-17T18:43:03.887Z,98.50
2022-08-17T18:45:35.857Z,98.70
2022-08-17T18:48:04.692Z,98.80
2022-08-17T18:50:41.257Z,98.90
2022-08-17T18:53:30.397Z,99.70
2022-08-17T18:56:22.372Z,99.90
2022-08-17T18:59:03.647Z,99.90
2022-08-17T19:01:52.526Z,99.90
2022-08-17T19:04:38.926Z,99.90
2022-08-17T19:07:25.693Z,99.90
2022-08-17T19:09:59.387Z,99.90
2022-08-17T19:12:32.581Z,99.90
2022-08-17T19:15:01.657Z,99.90
2022-08-17T19:17:37.583Z,99.90
2022-08-17T19:20:13.384Z,99.90
2022-08-17T19:22:55.101Z,99.90
2022-08-17T19:25:28.248Z,99.90
2022-08-17T19:28:02.696Z,99.90
2022-08-17T19:30:32.767Z,99.90
2022-08-17T19:33:03.096Z,99.90
2022-08-17T19:35:43.502Z,99.90
2022-08-17T19:38:27.763Z,99.90
2022-08-17T19:41:04.377Z,99.90
2022-08-17T19:43:56.052Z,99.90
2022-08-17T19:46:30.967Z,99.90
2022-08-17T19:49:17.091Z,99.90
2022-08-17T19:51:51.313Z,99.90
2022-08-17T19:54:31.330Z,99.90
2022-08-17T19:57:08.294Z,99.90
2022-08-17T19:59:49.098Z,99.90
2022-08-17T20:02:27.927Z,99.90
2022-08-17T20:05:01.000Z,99.90
2022-08-17T20:07:35.356Z,99.90
2022-08-17T20:10:08.953Z,99.90
2022-08-17T20:12:40.119Z,99.90
2022-08-17T20:15:11.484Z,99.90
2022-08-17T20:17:43.475Z,99.90
2022-08-17T20:20:24.041Z,99.90
2022-08-17T20:22:59.277Z,99.90
2022-08-17T20:25:46.098Z,99.90
2022-08-17T20:28:23.915Z,99.90
2022-08-17T20:30:53.007Z,99.90
2022-08-17T20:33:27.446Z,99.90
2022-08-17T20:36:06.057Z,99.90
2022-08-17T20:38:43.568Z,99.90
2022-08-17T20:41:16.281Z,99.90
2022-08-17T20:44:02.388Z,99.90
2022-08-17T20:46:54.277Z,99.90
2022-08-17T20:49:28.626Z,99.90
2022-08-17T20:52:02.339Z,99.90
2022-08-17T20:54:50.309Z,99.90
2022-08-17T20:57:47.395Z,99.90
2022-08-17T21:00:41.587Z,99.90
2022-08-17T21:03:50.116Z,99.90
2022-08-17T21:06:22.243Z,99.90
2022-08-17T21:08:57.909Z,99.90
2022-08-17T21:12:03.937Z,99.90
2022-08-17T21:14:59.666Z,99.90
2022-08-17T21:17:40.383Z,99.90
2022-08-17T21:20:27.000Z,99.90
2022-08-17T21:23:21.238Z,99.90
2022-08-17T21:26:17.281Z,99.90
2022-08-17T21:29:29.998Z,99.90
2022-08-17T21:32:15.873Z,99.90
2022-08-17T21:35:25.572Z,99.90
2022-08-17T21:37:59.968Z,99.90
2022-08-17T21:40:30.904Z,99.90
2022-08-17T21:43:07.925Z,99.90
2022-08-17T21:45:39.148Z,99.90
2022-08-17T21:48:15.116Z,99.90
2022-08-17T21:50:47.475Z,99.90
2022-08-17T21:53:28.204Z,99.90
2022-08-17T21:56:00.760Z,99.90
2022-08-17T21:58:33.412Z,99.90
2022-08-17T22:01:21.656Z,99.90
2022-08-17T22:04:03.266Z,99.90
2022-08-17T22:06:37.046Z,99.90
2022-08-17T22:09:23.766Z,99.90
2022-08-17T22:12:02.185Z,99.90
2022-08-17T22:14:52.181Z,99.90
2022-08-17T22:17:24.207Z,99.90
2022-08-17T22:19:56.848Z,99.90
2022-08-17T22:22:32.393Z,99.90
2022-08-17T22:25:02.419Z,99.90
2022-08-17T22:27:52.679Z,99.90
2022-08-17T22:30:37.507Z,99.90
2022-08-17T22:33:31.904Z,99.90
2022-08-17T22:36:13.288Z,99.90
2022-08-17T22:38:43.564Z,99.90
2022-08-17T22:41:45.372Z,99.90
2022-08-17T22:44:24.383Z,99.90
2022-08-17T22:46:59.914Z,99.90
2022-08-17T22:49:32.169Z,99.90
2022-08-17T22:52:05.276Z,99.90
2022-08-17T22:54:51.014Z,99.90
2022-08-17T22:57:38.621Z,99.90
2022-08-17T23:00:32.333Z,99.90
2022-08-17T23:03:17.775Z,99.90
2022-08-17T23:05:48.353Z,99.90
2022-08-17T23:08:21.240Z,99.90
2022-08-17T23:10:50.229Z,99.90
2022-08-17T23:13:18.475Z,99.90
2022-08-17T23:15:48.169Z,99.90
2022-08-17T23:18:17.520Z,99.90
2022-08-17T23:20:46.510Z,99.90
2022-08-17T23:23:15.815Z,99.90
2022-08-17T23:25:46.145Z,99.90
2022-08-17T23:28:14.517Z,99.90
2022-08-17T23:30:46.493Z,99.90
2022-08-17T23:33:21.248Z,99.90
2022-08-17T23:35:49.608Z,99.90
2022-08-17T23:38:17.831Z,99.90
2022-08-17T23:40:47.500Z,99.90
2022-08-17T23:43:17.580Z,99.90
2022-08-17T23:45:54.973Z,99.90
2022-08-17T23:48:32.453Z,99.90
2022-08-17T23:51:09.694Z,99.90
2022-08-17T23:53:40.190Z,99.90
2022-08-17T23:56:11.233Z,99.90
2022-08-17T23:58:42.142Z,99.90
